sensor_id;sensor_type;location;lat;lon;timestamp;P1;durP1;ratioP1;P2;durP2;ratioP2
59512;SDS011;45330;51.634;5.562;2023-12-20T00:02:07;30.65;;;8.98;;
59512;SDS011;45330;51.634;5.562;2023-12-20T00:04:33;29.10;;;9.57;;
59512;SDS011;45330;51.634;5.562;2023-12-20T00:06:58;28.95;;;9.77;;
59512;SDS011;45330;51.634;5.562;2023-12-20T00:09:23;27.67;;;9.07;;
59512;SDS011;45330;51.634;5.562;2023-12-20T00:11:49;27.90;;;9.55;;
59512;SDS011;45330;51.634;5.562;2023-12-20T00:14:14;28.52;;;9.82;;
59512;SDS011;45330;51.634;5.562;2023-12-20T00:16:39;29.42;;;10.52;;
59512;SDS011;45330;51.634;5.562;2023-12-20T00:19:05;30.65;;;10.40;;
59512;SDS011;45330;51.634;5.562;2023-12-20T00:21:30;31.65;;;10.48;;
59512;SDS011;45330;51.634;5.562;2023-12-20T00:23:56;29.52;;;9.65;;
59512;SDS011;45330;51.634;5.562;2023-12-20T00:26:21;31.08;;;9.48;;
59512;SDS011;45330;51.634;5.562;2023-12-20T00:28:46;27.70;;;8.68;;
59512;SDS011;45330;51.634;5.562;2023-12-20T00:31:12;31.20;;;8.90;;
59512;SDS011;45330;51.634;5.562;2023-12-20T00:33:37;25.58;;;7.07;;
59512;SDS011;45330;51.634;5.562;2023-12-20T00:36:04;29.25;;;7.18;;
59512;SDS011;45330;51.634;5.562;2023-12-20T00:38:30;22.95;;;7.07;;
59512;SDS011;45330;51.634;5.562;2023-12-20T00:40:56;29.67;;;6.30;;
59512;SDS011;45330;51.634;5.562;2023-12-20T00:43:21;23.27;;;6.22;;
59512;SDS011;45330;51.634;5.562;2023-12-20T00:45:46;24.33;;;5.45;;
59512;SDS011;45330;51.634;5.562;2023-12-20T00:48:12;26.40;;;4.90;;
59512;SDS011;45330;51.634;5.562;2023-12-20T00:50:37;24.10;;;4.38;;
59512;SDS011;45330;51.634;5.562;2023-12-20T00:53:02;23.88;;;4.97;;
59512;SDS011;45330;51.634;5.562;2023-12-20T00:55:28;18.55;;;4.40;;
59512;SDS011;45330;51.634;5.562;2023-12-20T00:57:53;25.13;;;4.57;;
59512;SDS011;45330;51.634;5.562;2023-12-20T01:00:19;23.08;;;4.45;;
59512;SDS011;45330;51.634;5.562;2023-12-20T01:02:44;22.73;;;4.20;;
59512;SDS011;45330;51.634;5.562;2023-12-20T01:05:11;22.48;;;4.63;;
59512;SDS011;45330;51.634;5.562;2023-12-20T01:07:37;19.58;;;4.15;;
59512;SDS011;45330;51.634;5.562;2023-12-20T01:10:02;22.00;;;4.70;;
59512;SDS011;45330;51.634;5.562;2023-12-20T01:12:28;23.05;;;3.70;;
59512;SDS011;45330;51.634;5.562;2023-12-20T01:14:53;23.67;;;4.28;;
59512;SDS011;45330;51.634;5.562;2023-12-20T01:17:19;22.90;;;3.95;;
59512;SDS011;45330;51.634;5.562;2023-12-20T01:19:44;24.58;;;4.25;;
59512;SDS011;45330;51.634;5.562;2023-12-20T01:22:09;22.02;;;4.03;;
59512;SDS011;45330;51.634;5.562;2023-12-20T01:24:35;22.50;;;4.13;;
59512;SDS011;45330;51.634;5.562;2023-12-20T01:27:00;23.85;;;4.55;;
59512;SDS011;45330;51.634;5.562;2023-12-20T01:29:25;23.65;;;4.50;;
59512;SDS011;45330;51.634;5.562;2023-12-20T01:31:51;20.85;;;3.97;;
59512;SDS011;45330;51.634;5.562;2023-12-20T01:34:17;21.75;;;4.05;;
59512;SDS011;45330;51.634;5.562;2023-12-20T01:36:42;22.08;;;4.47;;
59512;SDS011;45330;51.634;5.562;2023-12-20T01:39:08;19.50;;;4.63;;
59512;SDS011;45330;51.634;5.562;2023-12-20T01:41:33;23.42;;;4.25;;
59512;SDS011;45330;51.634;5.562;2023-12-20T01:43:58;24.42;;;4.32;;
59512;SDS011;45330;51.634;5.562;2023-12-20T01:46:24;19.30;;;3.90;;
59512;SDS011;45330;51.634;5.562;2023-12-20T01:48:49;19.10;;;4.45;;
59512;SDS011;45330;51.634;5.562;2023-12-20T01:51:15;21.70;;;3.88;;
59512;SDS011;45330;51.634;5.562;2023-12-20T01:53:41;26.00;;;4.30;;
59512;SDS011;45330;51.634;5.562;2023-12-20T01:56:07;20.92;;;4.32;;
59512;SDS011;45330;51.634;5.562;2023-12-20T01:58:33;22.13;;;4.38;;
59512;SDS011;45330;51.634;5.562;2023-12-20T02:00:59;25.88;;;4.78;;
59512;SDS011;45330;51.634;5.562;2023-12-20T02:03:24;18.95;;;3.42;;
59512;SDS011;45330;51.634;5.562;2023-12-20T02:05:50;25.13;;;4.45;;
59512;SDS011;45330;51.634;5.562;2023-12-20T02:08:15;23.10;;;4.10;;
59512;SDS011;45330;51.634;5.562;2023-12-20T02:10:41;21.65;;;4.10;;
59512;SDS011;45330;51.634;5.562;2023-12-20T02:13:07;22.33;;;4.07;;
59512;SDS011;45330;51.634;5.562;2023-12-20T02:15:32;24.58;;;4.13;;
59512;SDS011;45330;51.634;5.562;2023-12-20T02:17:57;19.30;;;3.97;;
59512;SDS011;45330;51.634;5.562;2023-12-20T02:20:23;21.40;;;4.05;;
59512;SDS011;45330;51.634;5.562;2023-12-20T02:22:49;26.55;;;5.32;;
59512;SDS011;45330;51.634;5.562;2023-12-20T02:25:14;25.48;;;4.38;;
59512;SDS011;45330;51.634;5.562;2023-12-20T02:27:40;23.80;;;4.32;;
59512;SDS011;45330;51.634;5.562;2023-12-20T02:30:05;31.02;;;4.60;;
59512;SDS011;45330;51.634;5.562;2023-12-20T02:32:31;25.17;;;4.47;;
59512;SDS011;45330;51.634;5.562;2023-12-20T02:34:57;22.17;;;3.92;;
59512;SDS011;45330;51.634;5.562;2023-12-20T02:37:22;24.50;;;4.72;;
59512;SDS011;45330;51.634;5.562;2023-12-20T02:39:48;21.50;;;4.28;;
59512;SDS011;45330;51.634;5.562;2023-12-20T02:42:13;24.70;;;4.57;;
59512;SDS011;45330;51.634;5.562;2023-12-20T02:44:38;21.55;;;4.57;;
59512;SDS011;45330;51.634;5.562;2023-12-20T02:47:04;25.58;;;5.43;;
59512;SDS011;45330;51.634;5.562;2023-12-20T02:49:29;28.17;;;6.18;;
59512;SDS011;45330;51.634;5.562;2023-12-20T02:51:54;23.33;;;4.47;;
59512;SDS011;45330;51.634;5.562;2023-12-20T02:54:20;27.48;;;4.97;;
59512;SDS011;45330;51.634;5.562;2023-12-20T02:56:46;19.95;;;4.60;;
59512;SDS011;45330;51.634;5.562;2023-12-20T02:59:12;26.30;;;4.65;;
59512;SDS011;45330;51.634;5.562;2023-12-20T03:01:43;27.00;;;5.35;;
59512;SDS011;45330;51.634;5.562;2023-12-20T03:04:10;22.05;;;4.70;;
59512;SDS011;45330;51.634;5.562;2023-12-20T03:06:35;22.58;;;4.75;;
59512;SDS011;45330;51.634;5.562;2023-12-20T03:09:00;27.40;;;5.53;;
59512;SDS011;45330;51.634;5.562;2023-12-20T03:11:26;22.85;;;4.40;;
59512;SDS011;45330;51.634;5.562;2023-12-20T03:13:52;21.67;;;4.80;;
59512;SDS011;45330;51.634;5.562;2023-12-20T03:16:18;29.13;;;5.78;;
59512;SDS011;45330;51.634;5.562;2023-12-20T03:18:43;29.88;;;5.47;;
59512;SDS011;45330;51.634;5.562;2023-12-20T03:21:09;25.77;;;4.90;;
59512;SDS011;45330;51.634;5.562;2023-12-20T03:23:34;28.05;;;5.40;;
59512;SDS011;45330;51.634;5.562;2023-12-20T03:25:59;26.77;;;5.75;;
59512;SDS011;45330;51.634;5.562;2023-12-20T03:28:26;26.25;;;4.70;;
59512;SDS011;45330;51.634;5.562;2023-12-20T03:30:51;31.48;;;6.22;;
59512;SDS011;45330;51.634;5.562;2023-12-20T03:33:17;25.92;;;5.13;;
59512;SDS011;45330;51.634;5.562;2023-12-20T03:35:42;27.02;;;5.05;;
59512;SDS011;45330;51.634;5.562;2023-12-20T03:38:08;29.13;;;6.45;;
59512;SDS011;45330;51.634;5.562;2023-12-20T03:40:33;29.73;;;5.75;;
59512;SDS011;45330;51.634;5.562;2023-12-20T03:42:59;25.88;;;6.13;;
59512;SDS011;45330;51.634;5.562;2023-12-20T03:45:24;24.55;;;5.28;;
59512;SDS011;45330;51.634;5.562;2023-12-20T03:47:49;28.33;;;5.85;;
59512;SDS011;45330;51.634;5.562;2023-12-20T03:50:19;24.33;;;5.68;;
59512;SDS011;45330;51.634;5.562;2023-12-20T03:52:45;28.92;;;5.80;;
59512;SDS011;45330;51.634;5.562;2023-12-20T03:55:11;31.25;;;5.88;;
59512;SDS011;45330;51.634;5.562;2023-12-20T03:57:36;32.60;;;6.03;;
59512;SDS011;45330;51.634;5.562;2023-12-20T04:00:01;26.58;;;6.57;;
59512;SDS011;45330;51.634;5.562;2023-12-20T04:02:27;27.40;;;5.78;;
59512;SDS011;45330;51.634;5.562;2023-12-20T04:04:52;29.23;;;6.10;;
59512;SDS011;45330;51.634;5.562;2023-12-20T04:07:18;26.38;;;5.65;;
59512;SDS011;45330;51.634;5.562;2023-12-20T04:09:43;29.92;;;5.90;;
59512;SDS011;45330;51.634;5.562;2023-12-20T04:12:08;34.05;;;6.13;;
59512;SDS011;45330;51.634;5.562;2023-12-20T04:14:34;24.25;;;5.25;;
59512;SDS011;45330;51.634;5.562;2023-12-20T04:16:59;34.53;;;6.80;;
59512;SDS011;45330;51.634;5.562;2023-12-20T04:19:25;23.83;;;5.18;;
59512;SDS011;45330;51.634;5.562;2023-12-20T04:21:50;27.27;;;5.10;;
59512;SDS011;45330;51.634;5.562;2023-12-20T04:24:15;27.58;;;5.63;;
59512;SDS011;45330;51.634;5.562;2023-12-20T04:26:41;25.05;;;5.53;;
59512;SDS011;45330;51.634;5.562;2023-12-20T04:29:06;29.88;;;5.50;;
59512;SDS011;45330;51.634;5.562;2023-12-20T04:31:31;26.13;;;5.28;;
59512;SDS011;45330;51.634;5.562;2023-12-20T04:33:57;26.38;;;5.47;;
59512;SDS011;45330;51.634;5.562;2023-12-20T04:36:22;33.30;;;6.03;;
59512;SDS011;45330;51.634;5.562;2023-12-20T04:38:48;27.25;;;5.80;;
59512;SDS011;45330;51.634;5.562;2023-12-20T04:41:14;30.02;;;5.53;;
59512;SDS011;45330;51.634;5.562;2023-12-20T04:43:43;29.65;;;5.75;;
59512;SDS011;45330;51.634;5.562;2023-12-20T04:46:09;29.80;;;5.13;;
59512;SDS011;45330;51.634;5.562;2023-12-20T04:48:34;28.50;;;5.30;;
59512;SDS011;45330;51.634;5.562;2023-12-20T04:50:59;26.35;;;5.45;;
59512;SDS011;45330;51.634;5.562;2023-12-20T04:53:25;25.85;;;5.00;;
59512;SDS011;45330;51.634;5.562;2023-12-20T04:55:51;28.58;;;5.32;;
59512;SDS011;45330;51.634;5.562;2023-12-20T04:58:16;29.33;;;5.50;;
59512;SDS011;45330;51.634;5.562;2023-12-20T05:00:41;26.45;;;4.57;;
59512;SDS011;45330;51.634;5.562;2023-12-20T05:03:07;30.40;;;5.35;;
59512;SDS011;45330;51.634;5.562;2023-12-20T05:05:33;26.60;;;5.35;;
59512;SDS011;45330;51.634;5.562;2023-12-20T05:07:58;26.80;;;5.70;;
59512;SDS011;45330;51.634;5.562;2023-12-20T05:10:24;27.50;;;5.30;;
59512;SDS011;45330;51.634;5.562;2023-12-20T05:12:49;25.00;;;5.00;;
59512;SDS011;45330;51.634;5.562;2023-12-20T05:15:14;26.42;;;5.28;;
59512;SDS011;45330;51.634;5.562;2023-12-20T05:17:40;28.02;;;4.95;;
59512;SDS011;45330;51.634;5.562;2023-12-20T05:20:05;29.38;;;4.82;;
59512;SDS011;45330;51.634;5.562;2023-12-20T05:22:31;29.67;;;5.20;;
59512;SDS011;45330;51.634;5.562;2023-12-20T05:24:58;22.98;;;4.95;;
59512;SDS011;45330;51.634;5.562;2023-12-20T05:27:23;25.60;;;5.15;;
59512;SDS011;45330;51.634;5.562;2023-12-20T05:29:48;26.25;;;5.25;;
59512;SDS011;45330;51.634;5.562;2023-12-20T05:32:15;25.90;;;4.90;;
59512;SDS011;45330;51.634;5.562;2023-12-20T05:34:40;26.10;;;4.80;;
59512;SDS011;45330;51.634;5.562;2023-12-20T05:37:06;29.42;;;5.45;;
59512;SDS011;45330;51.634;5.562;2023-12-20T05:39:31;26.73;;;5.07;;
59512;SDS011;45330;51.634;5.562;2023-12-20T05:41:56;25.90;;;4.97;;
59512;SDS011;45330;51.634;5.562;2023-12-20T05:44:22;25.17;;;4.93;;
59512;SDS011;45330;51.634;5.562;2023-12-20T05:46:47;23.48;;;4.60;;
59512;SDS011;45330;51.634;5.562;2023-12-20T05:49:12;28.17;;;5.70;;
59512;SDS011;45330;51.634;5.562;2023-12-20T05:51:38;29.23;;;5.38;;
59512;SDS011;45330;51.634;5.562;2023-12-20T05:54:04;26.33;;;4.85;;
59512;SDS011;45330;51.634;5.562;2023-12-20T05:56:29;27.52;;;5.22;;
59512;SDS011;45330;51.634;5.562;2023-12-20T05:58:54;23.73;;;4.82;;
59512;SDS011;45330;51.634;5.562;2023-12-20T06:01:20;24.55;;;4.75;;
59512;SDS011;45330;51.634;5.562;2023-12-20T06:03:45;23.85;;;4.60;;
59512;SDS011;45330;51.634;5.562;2023-12-20T06:06:11;21.33;;;4.43;;
59512;SDS011;45330;51.634;5.562;2023-12-20T06:08:37;24.08;;;4.68;;
59512;SDS011;45330;51.634;5.562;2023-12-20T06:11:03;21.30;;;4.22;;
59512;SDS011;45330;51.634;5.562;2023-12-20T06:13:28;23.15;;;4.57;;
59512;SDS011;45330;51.634;5.562;2023-12-20T06:15:54;27.40;;;4.70;;
59512;SDS011;45330;51.634;5.562;2023-12-20T06:18:20;28.15;;;6.40;;
59512;SDS011;45330;51.634;5.562;2023-12-20T06:20:46;28.38;;;4.60;;
59512;SDS011;45330;51.634;5.562;2023-12-20T06:23:11;22.27;;;4.35;;
59512;SDS011;45330;51.634;5.562;2023-12-20T06:25:36;22.63;;;4.80;;
59512;SDS011;45330;51.634;5.562;2023-12-20T06:28:02;27.90;;;5.15;;
59512;SDS011;45330;51.634;5.562;2023-12-20T06:30:27;27.38;;;5.03;;
59512;SDS011;45330;51.634;5.562;2023-12-20T06:32:53;26.17;;;5.10;;
59512;SDS011;45330;51.634;5.562;2023-12-20T06:35:19;26.05;;;4.60;;
59512;SDS011;45330;51.634;5.562;2023-12-20T06:37:45;25.70;;;4.75;;
59512;SDS011;45330;51.634;5.562;2023-12-20T06:40:10;27.27;;;4.68;;
59512;SDS011;45330;51.634;5.562;2023-12-20T06:42:36;26.90;;;5.97;;
59512;SDS011;45330;51.634;5.562;2023-12-20T06:45:02;22.65;;;4.35;;
59512;SDS011;45330;51.634;5.562;2023-12-20T06:47:28;29.67;;;6.45;;
59512;SDS011;45330;51.634;5.562;2023-12-20T06:49:53;29.25;;;5.72;;
59512;SDS011;45330;51.634;5.562;2023-12-20T06:52:18;22.35;;;5.13;;
59512;SDS011;45330;51.634;5.562;2023-12-20T06:54:44;27.80;;;5.13;;
59512;SDS011;45330;51.634;5.562;2023-12-20T06:57:09;21.10;;;4.40;;
59512;SDS011;45330;51.634;5.562;2023-12-20T06:59:41;27.55;;;4.88;;
59512;SDS011;45330;51.634;5.562;2023-12-20T07:02:06;22.30;;;4.60;;
59512;SDS011;45330;51.634;5.562;2023-12-20T07:04:39;21.88;;;4.25;;
59512;SDS011;45330;51.634;5.562;2023-12-20T07:07:05;27.95;;;5.10;;
59512;SDS011;45330;51.634;5.562;2023-12-20T07:09:30;27.23;;;4.65;;
59512;SDS011;45330;51.634;5.562;2023-12-20T07:11:56;27.92;;;4.95;;
59512;SDS011;45330;51.634;5.562;2023-12-20T07:14:21;22.15;;;4.93;;
59512;SDS011;45330;51.634;5.562;2023-12-20T07:16:46;26.58;;;4.78;;
59512;SDS011;45330;51.634;5.562;2023-12-20T07:19:12;26.95;;;5.18;;
59512;SDS011;45330;51.634;5.562;2023-12-20T07:21:37;21.75;;;4.20;;
59512;SDS011;45330;51.634;5.562;2023-12-20T07:24:02;27.10;;;4.38;;
59512;SDS011;45330;51.634;5.562;2023-12-20T07:26:28;25.20;;;5.15;;
59512;SDS011;45330;51.634;5.562;2023-12-20T07:28:53;27.27;;;4.72;;
59512;SDS011;45330;51.634;5.562;2023-12-20T07:31:19;28.33;;;5.32;;
59512;SDS011;45330;51.634;5.562;2023-12-20T07:33:44;26.83;;;5.82;;
59512;SDS011;45330;51.634;5.562;2023-12-20T07:36:09;28.17;;;5.80;;
59512;SDS011;45330;51.634;5.562;2023-12-20T07:38:35;26.50;;;6.10;;
59512;SDS011;45330;51.634;5.562;2023-12-20T07:41:00;25.50;;;5.35;;
59512;SDS011;45330;51.634;5.562;2023-12-20T07:43:26;26.98;;;5.55;;
59512;SDS011;45330;51.634;5.562;2023-12-20T07:45:51;24.85;;;5.25;;
59512;SDS011;45330;51.634;5.562;2023-12-20T07:48:17;26.70;;;6.28;;
59512;SDS011;45330;51.634;5.562;2023-12-20T07:50:42;25.75;;;5.90;;
59512;SDS011;45330;51.634;5.562;2023-12-20T07:53:08;23.10;;;5.80;;
59512;SDS011;45330;51.634;5.562;2023-12-20T07:55:33;25.10;;;5.60;;
59512;SDS011;45330;51.634;5.562;2023-12-20T07:57:59;24.50;;;5.53;;
59512;SDS011;45330;51.634;5.562;2023-12-20T08:00:25;24.38;;;5.32;;
59512;SDS011;45330;51.634;5.562;2023-12-20T08:02:50;25.02;;;5.55;;
59512;SDS011;45330;51.634;5.562;2023-12-20T08:05:16;24.45;;;5.88;;
59512;SDS011;45330;51.634;5.562;2023-12-20T08:07:41;22.42;;;5.18;;
59512;SDS011;45330;51.634;5.562;2023-12-20T08:10:06;21.52;;;5.05;;
59512;SDS011;45330;51.634;5.562;2023-12-20T08:12:32;20.70;;;4.88;;
59512;SDS011;45330;51.634;5.562;2023-12-20T08:14:58;23.35;;;5.57;;
59512;SDS011;45330;51.634;5.562;2023-12-20T08:17:24;26.33;;;6.45;;
59512;SDS011;45330;51.634;5.562;2023-12-20T08:19:49;22.77;;;5.10;;
59512;SDS011;45330;51.634;5.562;2023-12-20T08:22:15;27.13;;;6.28;;
59512;SDS011;45330;51.634;5.562;2023-12-20T08:24:40;26.85;;;5.43;;
59512;SDS011;45330;51.634;5.562;2023-12-20T08:27:05;23.35;;;5.35;;
59512;SDS011;45330;51.634;5.562;2023-12-20T08:29:31;25.35;;;5.35;;
59512;SDS011;45330;51.634;5.562;2023-12-20T08:31:56;23.23;;;4.78;;
59512;SDS011;45330;51.634;5.562;2023-12-20T08:34:22;24.75;;;5.10;;
59512;SDS011;45330;51.634;5.562;2023-12-20T08:36:51;23.77;;;5.43;;
59512;SDS011;45330;51.634;5.562;2023-12-20T08:39:17;23.80;;;4.65;;
59512;SDS011;45330;51.634;5.562;2023-12-20T08:41:42;23.08;;;5.13;;
59512;SDS011;45330;51.634;5.562;2023-12-20T08:44:08;28.90;;;4.85;;
59512;SDS011;45330;51.634;5.562;2023-12-20T08:46:34;23.38;;;4.93;;
59512;SDS011;45330;51.634;5.562;2023-12-20T08:49:00;23.20;;;4.20;;
59512;SDS011;45330;51.634;5.562;2023-12-20T08:51:26;24.83;;;4.82;;
59512;SDS011;45330;51.634;5.562;2023-12-20T08:53:51;22.17;;;4.20;;
59512;SDS011;45330;51.634;5.562;2023-12-20T08:56:17;23.85;;;4.85;;
59512;SDS011;45330;51.634;5.562;2023-12-20T08:58:43;21.45;;;4.82;;
59512;SDS011;45330;51.634;5.562;2023-12-20T09:01:08;23.85;;;4.90;;
59512;SDS011;45330;51.634;5.562;2023-12-20T09:03:34;23.88;;;4.75;;
59512;SDS011;45330;51.634;5.562;2023-12-20T09:05:59;24.67;;;5.00;;
59512;SDS011;45330;51.634;5.562;2023-12-20T09:08:25;21.63;;;4.88;;
59512;SDS011;45330;51.634;5.562;2023-12-20T09:10:50;24.80;;;4.70;;
59512;SDS011;45330;51.634;5.562;2023-12-20T09:13:16;20.13;;;4.45;;
59512;SDS011;45330;51.634;5.562;2023-12-20T09:15:41;18.58;;;4.75;;
59512;SDS011;45330;51.634;5.562;2023-12-20T09:18:07;19.60;;;4.30;;
59512;SDS011;45330;51.634;5.562;2023-12-20T09:20:33;20.98;;;4.00;;
59512;SDS011;45330;51.634;5.562;2023-12-20T09:22:59;21.48;;;4.35;;
59512;SDS011;45330;51.634;5.562;2023-12-20T09:25:26;25.42;;;5.15;;
59512;SDS011;45330;51.634;5.562;2023-12-20T09:27:51;21.60;;;4.28;;
59512;SDS011;45330;51.634;5.562;2023-12-20T09:30:17;24.27;;;4.68;;
59512;SDS011;45330;51.634;5.562;2023-12-20T09:32:43;23.15;;;4.30;;
59512;SDS011;45330;51.634;5.562;2023-12-20T09:35:10;24.92;;;4.22;;
59512;SDS011;45330;51.634;5.562;2023-12-20T09:37:35;22.70;;;5.15;;
59512;SDS011;45330;51.634;5.562;2023-12-20T09:40:01;25.13;;;4.80;;
59512;SDS011;45330;51.634;5.562;2023-12-20T09:43:10;24.52;;;4.43;;
59512;SDS011;45330;51.634;5.562;2023-12-20T09:45:15;25.10;;;4.10;;
59512;SDS011;45330;51.634;5.562;2023-12-20T09:47:43;20.55;;;4.15;;
59512;SDS011;45330;51.634;5.562;2023-12-20T09:50:10;22.52;;;3.95;;
59512;SDS011;45330;51.634;5.562;2023-12-20T09:52:36;20.08;;;4.13;;
59512;SDS011;45330;51.634;5.562;2023-12-20T09:55:02;22.08;;;4.53;;
59512;SDS011;45330;51.634;5.562;2023-12-20T09:57:31;21.50;;;4.53;;
59512;SDS011;45330;51.634;5.562;2023-12-20T09:59:57;22.45;;;4.32;;
59512;SDS011;45330;51.634;5.562;2023-12-20T10:02:23;25.02;;;4.85;;
59512;SDS011;45330;51.634;5.562;2023-12-20T10:04:52;20.70;;;4.03;;
59512;SDS011;45330;51.634;5.562;2023-12-20T10:07:17;22.83;;;4.13;;
59512;SDS011;45330;51.634;5.562;2023-12-20T10:09:43;22.27;;;4.43;;
59512;SDS011;45330;51.634;5.562;2023-12-20T10:12:09;18.75;;;4.00;;
59512;SDS011;45330;51.634;5.562;2023-12-20T10:14:34;22.92;;;5.68;;
59512;SDS011;45330;51.634;5.562;2023-12-20T10:17:03;26.13;;;4.80;;
59512;SDS011;45330;51.634;5.562;2023-12-20T10:19:29;25.17;;;4.82;;
59512;SDS011;45330;51.634;5.562;2023-12-20T10:21:56;21.52;;;4.25;;
59512;SDS011;45330;51.634;5.562;2023-12-20T10:24:24;22.08;;;4.65;;
59512;SDS011;45330;51.634;5.562;2023-12-20T10:26:55;19.15;;;3.97;;
59512;SDS011;45330;51.634;5.562;2023-12-20T10:29:30;26.20;;;4.57;;
59512;SDS011;45330;51.634;5.562;2023-12-20T10:32:44;19.58;;;4.85;;
59512;SDS011;45330;51.634;5.562;2023-12-20T10:34:52;23.65;;;4.75;;
59512;SDS011;45330;51.634;5.562;2023-12-20T10:37:19;18.42;;;4.15;;
59512;SDS011;45330;51.634;5.562;2023-12-20T10:39:47;23.00;;;4.60;;
59512;SDS011;45330;51.634;5.562;2023-12-20T10:44:41;22.05;;;4.07;;
59512;SDS011;45330;51.634;5.562;2023-12-20T10:47:07;21.45;;;4.57;;
59512;SDS011;45330;51.634;5.562;2023-12-20T10:49:36;22.00;;;4.47;;
59512;SDS011;45330;51.634;5.562;2023-12-20T10:52:02;24.00;;;4.43;;
59512;SDS011;45330;51.634;5.562;2023-12-20T10:54:30;23.55;;;4.53;;
59512;SDS011;45330;51.634;5.562;2023-12-20T10:56:56;22.35;;;4.10;;
59512;SDS011;45330;51.634;5.562;2023-12-20T10:59:23;22.35;;;4.20;;
59512;SDS011;45330;51.634;5.562;2023-12-20T11:01:49;21.00;;;4.10;;
59512;SDS011;45330;51.634;5.562;2023-12-20T11:04:17;22.10;;;4.53;;
59512;SDS011;45330;51.634;5.562;2023-12-20T11:06:51;24.92;;;4.38;;
59512;SDS011;45330;51.634;5.562;2023-12-20T11:09:23;23.33;;;4.07;;
59512;SDS011;45330;51.634;5.562;2023-12-20T11:14:31;23.65;;;4.70;;
59512;SDS011;45330;51.634;5.562;2023-12-20T11:17:15;22.83;;;4.00;;
59512;SDS011;45330;51.634;5.562;2023-12-20T11:22:21;21.92;;;4.25;;
59512;SDS011;45330;51.634;5.562;2023-12-20T11:24:48;20.15;;;4.05;;
59512;SDS011;45330;51.634;5.562;2023-12-20T11:27:13;21.42;;;4.22;;
59512;SDS011;45330;51.634;5.562;2023-12-20T11:29:39;21.13;;;4.68;;
59512;SDS011;45330;51.634;5.562;2023-12-20T11:37:36;23.88;;;4.22;;
59512;SDS011;45330;51.634;5.562;2023-12-20T11:42:32;23.23;;;4.38;;
59512;SDS011;45330;51.634;5.562;2023-12-20T11:44:59;20.60;;;4.80;;
59512;SDS011;45330;51.634;5.562;2023-12-20T11:47:28;21.02;;;3.67;;
59512;SDS011;45330;51.634;5.562;2023-12-20T11:49:54;23.27;;;3.58;;
59512;SDS011;45330;51.634;5.562;2023-12-20T11:52:21;19.77;;;3.78;;
59512;SDS011;45330;51.634;5.562;2023-12-20T11:54:46;16.98;;;3.38;;
59512;SDS011;45330;51.634;5.562;2023-12-20T11:57:13;24.73;;;4.00;;
59512;SDS011;45330;51.634;5.562;2023-12-20T11:59:38;19.80;;;3.90;;
59512;SDS011;45330;51.634;5.562;2023-12-20T12:02:04;20.35;;;3.83;;
59512;SDS011;45330;51.634;5.562;2023-12-20T12:04:29;20.80;;;3.88;;
59512;SDS011;45330;51.634;5.562;2023-12-20T12:06:55;23.80;;;5.65;;
59512;SDS011;45330;51.634;5.562;2023-12-20T12:09:20;22.05;;;3.47;;
59512;SDS011;45330;51.634;5.562;2023-12-20T12:11:45;20.77;;;3.38;;
59512;SDS011;45330;51.634;5.562;2023-12-20T12:14:11;25.20;;;4.35;;
59512;SDS011;45330;51.634;5.562;2023-12-20T12:16:36;20.88;;;3.67;;
59512;SDS011;45330;51.634;5.562;2023-12-20T12:19:02;23.10;;;4.05;;
59512;SDS011;45330;51.634;5.562;2023-12-20T12:21:27;20.50;;;3.47;;
59512;SDS011;45330;51.634;5.562;2023-12-20T12:23:53;20.85;;;3.67;;
59512;SDS011;45330;51.634;5.562;2023-12-20T12:26:18;20.98;;;4.43;;
59512;SDS011;45330;51.634;5.562;2023-12-20T12:28:44;22.05;;;3.90;;
59512;SDS011;45330;51.634;5.562;2023-12-20T12:31:13;20.70;;;4.10;;
59512;SDS011;45330;51.634;5.562;2023-12-20T12:33:41;26.35;;;4.47;;
59512;SDS011;45330;51.634;5.562;2023-12-20T12:36:09;21.30;;;3.92;;
59512;SDS011;45330;51.634;5.562;2023-12-20T12:38:36;19.90;;;3.55;;
59512;SDS011;45330;51.634;5.562;2023-12-20T12:41:01;23.75;;;4.38;;
59512;SDS011;45330;51.634;5.562;2023-12-20T12:43:27;22.42;;;3.75;;
59512;SDS011;45330;51.634;5.562;2023-12-20T12:45:53;19.77;;;3.50;;
59512;SDS011;45330;51.634;5.562;2023-12-20T12:48:18;21.95;;;4.25;;
59512;SDS011;45330;51.634;5.562;2023-12-20T12:50:45;20.30;;;4.13;;
59512;SDS011;45330;51.634;5.562;2023-12-20T12:53:11;18.85;;;4.10;;
59512;SDS011;45330;51.634;5.562;2023-12-20T12:55:36;22.67;;;3.75;;
59512;SDS011;45330;51.634;5.562;2023-12-20T12:58:01;20.45;;;4.22;;
59512;SDS011;45330;51.634;5.562;2023-12-20T13:00:27;19.85;;;3.55;;
59512;SDS011;45330;51.634;5.562;2023-12-20T13:02:52;21.45;;;3.42;;
59512;SDS011;45330;51.634;5.562;2023-12-20T13:05:18;22.92;;;4.25;;
59512;SDS011;45330;51.634;5.562;2023-12-20T13:07:43;16.10;;;3.40;;
59512;SDS011;45330;51.634;5.562;2023-12-20T13:10:10;19.35;;;3.47;;
59512;SDS011;45330;51.634;5.562;2023-12-20T13:12:36;19.38;;;4.15;;
59512;SDS011;45330;51.634;5.562;2023-12-20T13:15:01;19.30;;;4.30;;
59512;SDS011;45330;51.634;5.562;2023-12-20T13:17:28;18.15;;;3.47;;
59512;SDS011;45330;51.634;5.562;2023-12-20T13:19:54;18.15;;;3.30;;
59512;SDS011;45330;51.634;5.562;2023-12-20T13:22:19;18.63;;;3.80;;
59512;SDS011;45330;51.634;5.562;2023-12-20T13:24:45;21.27;;;3.90;;
59512;SDS011;45330;51.634;5.562;2023-12-20T13:27:10;17.35;;;3.40;;
59512;SDS011;45330;51.634;5.562;2023-12-20T13:29:36;17.92;;;3.60;;
59512;SDS011;45330;51.634;5.562;2023-12-20T13:32:01;22.92;;;4.25;;
59512;SDS011;45330;51.634;5.562;2023-12-20T13:34:28;18.05;;;4.03;;
59512;SDS011;45330;51.634;5.562;2023-12-20T13:36:54;18.83;;;3.58;;
59512;SDS011;45330;51.634;5.562;2023-12-20T13:39:19;20.05;;;3.60;;
59512;SDS011;45330;51.634;5.562;2023-12-20T13:41:45;19.77;;;3.88;;
59512;SDS011;45330;51.634;5.562;2023-12-20T13:44:10;20.73;;;4.40;;
59512;SDS011;45330;51.634;5.562;2023-12-20T13:46:37;18.77;;;3.97;;
59512;SDS011;45330;51.634;5.562;2023-12-20T13:49:02;21.35;;;3.90;;
59512;SDS011;45330;51.634;5.562;2023-12-20T13:51:28;21.98;;;3.70;;
59512;SDS011;45330;51.634;5.562;2023-12-20T13:53:53;20.05;;;3.88;;
59512;SDS011;45330;51.634;5.562;2023-12-20T13:56:19;18.30;;;3.67;;
59512;SDS011;45330;51.634;5.562;2023-12-20T13:58:45;20.33;;;3.42;;
59512;SDS011;45330;51.634;5.562;2023-12-20T14:01:12;21.88;;;4.30;;
59512;SDS011;45330;51.634;5.562;2023-12-20T14:03:37;20.48;;;3.78;;
59512;SDS011;45330;51.634;5.562;2023-12-20T14:06:02;19.70;;;4.20;;
59512;SDS011;45330;51.634;5.562;2023-12-20T14:08:28;20.65;;;3.42;;
59512;SDS011;45330;51.634;5.562;2023-12-20T14:10:54;23.88;;;3.95;;
59512;SDS011;45330;51.634;5.562;2023-12-20T14:13:19;20.10;;;3.75;;
59512;SDS011;45330;51.634;5.562;2023-12-20T14:15:46;19.50;;;3.72;;
59512;SDS011;45330;51.634;5.562;2023-12-20T14:18:12;24.30;;;3.75;;
59512;SDS011;45330;51.634;5.562;2023-12-20T14:20:39;19.75;;;4.57;;
59512;SDS011;45330;51.634;5.562;2023-12-20T14:23:07;19.02;;;5.25;;
59512;SDS011;45330;51.634;5.562;2023-12-20T14:25:32;21.48;;;4.00;;
59512;SDS011;45330;51.634;5.562;2023-12-20T14:27:58;19.05;;;3.75;;
59512;SDS011;45330;51.634;5.562;2023-12-20T14:30:24;21.45;;;3.47;;
59512;SDS011;45330;51.634;5.562;2023-12-20T14:32:50;22.40;;;4.32;;
59512;SDS011;45330;51.634;5.562;2023-12-20T14:35:15;20.13;;;3.58;;
59512;SDS011;45330;51.634;5.562;2023-12-20T14:37:41;19.90;;;3.60;;
59512;SDS011;45330;51.634;5.562;2023-12-20T14:40:06;20.30;;;4.40;;
59512;SDS011;45330;51.634;5.562;2023-12-20T14:42:36;21.25;;;4.32;;